< < Back
Terminal Aerodrome Forecast


Current Version              Previous Versions:   1  2  3  4  5  6  7  8  9  

Terminal Aerodrome Forecast

693
FTAK31 PAJN 291100 RRA
TAFAGS
TAF
PAGS 291142Z 2912/3012 30006KT P6SM -SHRA SCT025 OVC050
     FM291800 12006KT P6SM -SHRA SCT020 OVC040
     FM292100 VRB04KT P6SM VCSH SCT025 OVC050
     FM300300 VRB03KT P6SM VCSH SCT020 BKN040 OVC060
     FM300900 00000KT P6SM VCSH SCT025 OVC050
      AMD NOT SKED=



Latest METAR

798
SAUS70 KWBC 292000 RRF
MTRAGS
METAR KAGS 291953Z 15008KT 10SM CLR 35/13 A3003 RMK AO2 SLP165
T03500133


USA.gov is the U.S. government's official web portal to all federal, state and local government web resources and services.